Time;durP1;ratioP1;P1;durP2;ratioP2;P2;SDS_P1;SDS_P2;PMS_P1;PMS_P2;Temp;Humidity;BMP_temperature;BMP_pressure;BME280_temperature;BME280_humidity;BME280_pressure;Samples;Min_cycle;Max_cycle;Signal;HPM_P1;HPM_P2
2021/11/23 00:00:46;;;;;;;6.30;3.60;;;;;;;25.05;18.59;98855.06;5028805;28;20393;-80
2021/11/23 00:03:14;;;;;;;6.47;4.30;;;;;;;25.27;18.07;98853.56;5029378;28;20500;-80
2021/11/23 00:05:42;;;;;;;5.68;3.25;;;;;;;25.13;18.09;98858.59;5026100;28;20111;-80
2021/11/23 00:08:09;;;;;;;7.05;3.97;;;;;;;25.21;18.11;98855.25;5028845;28;20029;-80
2021/11/23 00:10:37;;;;;;;5.35;3.78;;;;;;;25.28;18.01;98852.31;5030541;28;20033;-80
2021/11/23 00:13:03;;;;;;;17.77;6.40;;;;;;;25.49;18.10;98859.66;5031244;28;20025;-79
2021/11/23 00:15:30;;;;;;;8.68;4.53;;;;;;;25.55;18.09;98865.63;5024497;28;20040;-80
2021/11/23 00:17:56;;;;;;;5.65;3.90;;;;;;;25.21;18.39;98863.66;5027671;28;20036;-80
2021/11/23 00:20:22;;;;;;;6.90;3.78;;;;;;;25.16;18.41;98864.13;5030201;28;20120;-80
2021/11/23 00:22:48;;;;;;;12.55;5.72;;;;;;;25.45;18.09;98858.13;5029648;28;20063;-80
2021/11/23 00:25:14;;;;;;;21.40;8.20;;;;;;;25.59;17.80;98863.53;5025891;28;20033;-79
2021/11/23 00:27:41;;;;;;;15.52;7.95;;;;;;;25.53;17.75;98857.63;5029383;28;20074;-79
2021/11/23 00:30:07;;;;;;;17.52;7.80;;;;;;;25.47;17.73;98864.94;5027101;28;20041;-80
2021/11/23 00:32:33;;;;;;;13.65;6.75;;;;;;;25.45;17.86;98869.38;5024639;28;20033;-80
2021/11/23 00:34:59;;;;;;;7.13;4.65;;;;;;;25.34;17.88;98864.69;5027569;28;20033;-80
2021/11/23 00:37:26;;;;;;;6.43;3.92;;;;;;;24.89;18.23;98871.75;5028937;28;20041;-79
2021/11/23 00:39:52;;;;;;;7.88;4.38;;;;;;;24.44;18.43;98868.22;5026167;28;20128;-80
2021/11/23 00:42:18;;;;;;;9.13;4.85;;;;;;;23.97;18.88;98881.09;5030071;28;20476;-80
2021/11/23 00:44:45;;;;;;;7.20;3.85;;;;;;;23.70;19.28;98885.72;5029617;28;20083;-79
2021/11/23 00:47:11;;;;;;;6.70;4.47;;;;;;;23.58;19.29;98879.81;5030183;28;20040;-80
2021/11/23 00:49:37;;;;;;;9.82;5.50;;;;;;;23.76;19.30;98877.66;5025205;28;20037;-80
2021/11/23 00:52:03;;;;;;;10.52;4.13;;;;;;;23.90;19.02;98886.75;5028797;28;20041;-79
2021/11/23 00:54:30;;;;;;;8.10;4.55;;;;;;;24.06;18.63;98886.25;5031130;28;20122;-79
2021/11/23 00:56:56;;;;;;;6.72;4.72;;;;;;;23.98;18.76;98887.50;5032031;28;20034;-80
2021/11/23 00:59:22;;;;;;;7.47;4.13;;;;;;;23.68;19.02;98892.94;5029294;28;20401;-80
2021/11/23 01:01:48;;;;;;;8.10;4.15;;;;;;;23.69;19.01;98905.75;5031115;28;20030;-80
2021/11/23 01:04:14;;;;;;;6.80;3.67;;;;;;;23.76;18.93;98900.88;5027981;28;20033;-80
2021/11/23 01:06:40;;;;;;;7.90;3.72;;;;;;;23.88;18.97;98905.19;5033539;28;20033;-80
2021/11/23 01:09:07;;;;;;;9.90;5.00;;;;;;;23.63;18.93;98911.00;5032590;28;20366;-80
2021/11/23 01:11:33;;;;;;;13.88;5.95;;;;;;;23.38;19.37;98908.34;5040763;28;20030;-80
2021/11/23 01:13:59;;;;;;;12.85;4.85;;;;;;;23.47;18.98;98902.31;5033771;28;20037;-79
2021/11/23 01:16:25;;;;;;;7.22;4.20;;;;;;;23.45;19.28;98893.53;5032596;28;20036;-80
2021/11/23 01:18:52;;;;;;;5.68;3.10;;;;;;;23.60;18.75;98909.03;5033364;28;20606;-79
2021/11/23 01:21:18;;;;;;;5.40;2.97;;;;;;;23.72;19.05;98905.72;5034387;28;20047;-79
2021/11/23 01:23:44;;;;;;;5.47;3.10;;;;;;;23.94;18.44;98907.16;5033486;28;20037;-80
2021/11/23 01:26:10;;;;;;;4.57;2.92;;;;;;;24.11;18.26;98910.28;5033859;28;20120;-79
2021/11/23 01:28:36;;;;;;;5.35;2.90;;;;;;;24.11;17.98;98905.44;5032095;28;20072;-79
2021/11/23 01:31:03;;;;;;;5.38;3.05;;;;;;;23.97;18.16;98902.72;5034784;28;20052;-80
2021/11/23 01:33:30;;;;;;;8.73;3.22;;;;;;;24.05;18.30;98899.47;5035078;28;20079;-79
2021/11/23 01:35:56;;;;;;;6.20;3.28;;;;;;;24.28;17.98;98898.06;5036024;28;20037;-79
2021/11/23 01:38:22;;;;;;;9.88;3.75;;;;;;;24.38;17.85;98905.59;5034104;28;20038;-79
2021/11/23 01:40:49;;;;;;;8.32;3.70;;;;;;;24.29;17.90;98897.66;5034325;28;20033;-79
2021/11/23 01:43:15;;;;;;;6.38;3.47;;;;;;;24.33;17.95;98900.44;5035247;28;20059;-79
2021/11/23 01:45:42;;;;;;;8.93;4.43;;;;;;;23.85;18.37;98904.00;5034137;28;20120;-79
2021/11/23 01:48:09;;;;;;;7.65;3.97;;;;;;;23.72;18.51;98904.94;5027759;28;20060;-79
2021/11/23 01:50:37;;;;;;;4.22;2.95;;;;;;;23.94;18.27;98898.72;5034239;28;20072;-79
2021/11/23 01:53:07;;;;;;;6.80;3.85;;;;;;;24.14;18.24;98895.41;5033801;28;20063;-79
2021/11/23 01:55:35;;;;;;;5.95;3.67;;;;;;;23.90;18.28;98895.16;5030136;28;20486;-80
2021/11/23 01:58:07;;;;;;;5.18;3.30;;;;;;;23.97;18.26;98897.09;5034473;28;20057;-80
2021/11/23 02:00:34;;;;;;;7.38;4.15;;;;;;;24.00;18.29;98887.88;5034540;28;20099;-80
2021/11/23 02:03:01;;;;;;;4.95;3.25;;;;;;;23.73;18.56;98886.91;5033458;28;20048;-80
2021/11/23 02:05:28;;;;;;;5.40;3.28;;;;;;;23.97;18.49;98888.69;5033187;28;20033;-80
2021/11/23 02:07:54;;;;;;;9.10;4.68;;;;;;;23.89;17.96;98899.19;5034615;28;20038;-80
2021/11/23 02:10:20;;;;;;;4.38;3.13;;;;;;;23.79;18.30;98891.66;5033124;28;20757;-80
2021/11/23 02:12:47;;;;;;;8.77;3.97;;;;;;;23.78;18.63;98892.09;5031370;28;20108;-79
2021/11/23 02:15:14;;;;;;;6.15;3.60;;;;;;;23.79;18.34;98888.84;5033722;28;20044;-80
2021/11/23 02:17:43;;;;;;;8.45;3.60;;;;;;;23.62;18.79;98889.00;5030390;28;20496;-80
2021/11/23 02:20:18;;;;;;;7.25;3.55;;;;;;;23.45;18.65;98887.91;5032679;28;20045;-80
2021/11/23 02:22:45;;;;;;;5.78;3.90;;;;;;;23.19;18.84;98894.84;5032451;28;20079;-79
2021/11/23 02:25:13;;;;;;;5.95;3.70;;;;;;;23.68;18.91;98892.94;5032031;28;20116;-80
2021/11/23 02:27:40;;;;;;;6.45;3.33;;;;;;;23.85;18.58;98895.59;5029555;28;20036;-79
2021/11/23 02:30:08;;;;;;;7.45;3.80;;;;;;;23.74;18.84;98894.09;5031261;28;20087;-80
2021/11/23 02:32:40;;;;;;;8.45;4.78;;;;;;;24.00;18.39;98893.50;5032671;28;20060;-80
2021/11/23 02:35:08;;;;;;;6.60;4.28;;;;;;;24.20;18.03;98897.31;5033652;28;20117;-79
2021/11/23 02:37:41;;;;;;;4.15;3.42;;;;;;;23.79;18.79;98894.47;5030007;28;20026;-80
2021/11/23 02:40:08;;;;;;;6.32;3.90;;;;;;;24.20;18.22;98894.53;5031510;28;20085;-80
2021/11/23 02:42:34;;;;;;;6.75;3.85;;;;;;;24.60;17.80;98899.31;5031617;28;20029;-80
2021/11/23 02:45:00;;;;;;;5.03;3.13;;;;;;;25.02;17.41;98895.25;5032280;28;20462;-80
2021/11/23 02:47:30;;;;;;;6.63;3.80;;;;;;;25.36;17.38;98901.63;5032918;28;20057;-80
2021/11/23 02:49:57;;;;;;;8.70;3.88;;;;;;;25.30;17.21;98891.25;5032244;28;20041;-80
2021/11/23 02:52:23;;;;;;;9.20;4.30;;;;;;;25.25;17.14;98900.94;5032000;28;20025;-80
2021/11/23 02:54:57;;;;;;;7.93;3.80;;;;;;;24.88;17.76;98906.66;5032529;28;20029;-80
2021/11/23 02:57:28;;;;;;;5.22;3.55;;;;;;;25.11;17.50;98897.56;5033003;28;20064;-79
2021/11/23 02:59:55;;;;;;;7.15;4.38;;;;;;;25.34;17.21;98909.66;5031350;28;20045;-79
2021/11/23 03:02:21;;;;;;;5.28;3.70;;;;;;;25.22;17.19;98910.25;5027967;28;20071;-79
2021/11/23 03:04:52;;;;;;;4.97;3.17;;;;;;;25.11;17.53;98911.59;5030490;28;20488;-79
2021/11/23 03:07:20;;;;;;;6.93;3.55;;;;;;;25.18;17.57;98917.13;5032092;28;20030;-80
2021/11/23 03:09:46;;;;;;;6.72;4.05;;;;;;;24.88;17.66;98926.31;5030566;28;20060;-79
2021/11/23 03:12:24;;;;;;;5.07;3.10;;;;;;;24.91;17.53;98922.69;5027862;28;20022;-79
2021/11/23 03:14:50;;;;;;;8.07;3.33;;;;;;;25.14;17.81;98917.16;5030803;28;20060;-80
2021/11/23 03:17:17;;;;;;;4.53;3.15;;;;;;;25.30;17.72;98925.78;5027313;28;20033;-80
2021/11/23 03:19:45;;;;;;;6.85;3.75;;;;;;;25.50;17.35;98928.75;5030658;28;20041;-80
2021/11/23 03:22:12;;;;;;;5.65;3.58;;;;;;;25.15;17.17;98915.16;5030894;28;20544;-79
2021/11/23 03:24:40;;;;;;;6.50;3.92;;;;;;;24.87;17.51;98924.75;5032078;28;20048;-80
2021/11/23 03:27:07;;;;;;;6.32;3.88;;;;;;;24.74;17.56;98923.63;5032747;28;20072;-79
2021/11/23 03:29:34;;;;;;;8.15;3.72;;;;;;;23.61;19.10;98935.84;5029921;28;20133;-80
2021/11/23 03:32:01;;;;;;;5.35;3.10;;;;;;;23.86;19.05;98935.66;5025891;28;20025;-80
2021/11/23 03:34:31;;;;;;;8.93;3.95;;;;;;;24.17;18.34;98933.84;5029229;28;20029;-79
2021/11/23 03:36:57;;;;;;;7.60;3.95;;;;;;;24.58;18.03;98927.03;5030284;28;20049;-80
2021/11/23 03:39:24;;;;;;;5.90;3.85;;;;;;;24.66;17.73;98924.94;5033180;28;20034;-80
2021/11/23 03:41:50;;;;;;;7.05;4.00;;;;;;;24.59;17.92;98931.44;5034031;28;20022;-80
2021/11/23 03:44:16;;;;;;;8.35;4.45;;;;;;;24.65;17.88;98926.16;5033207;28;20036;-80
2021/11/23 03:46:42;;;;;;;5.63;3.38;;;;;;;24.56;18.12;98926.66;5031206;28;20109;-80
2021/11/23 03:49:08;;;;;;;5.53;3.63;;;;;;;24.49;17.42;98929.53;5032700;28;20107;-79
2021/11/23 03:51:34;;;;;;;9.32;4.18;;;;;;;24.37;17.58;98934.88;5031713;28;20060;-80
2021/11/23 03:54:01;;;;;;;6.90;3.65;;;;;;;24.31;17.68;98940.16;5031654;28;20560;-79
2021/11/23 03:56:27;;;;;;;8.20;4.15;;;;;;;24.34;17.71;98930.09;5033742;28;20053;-79
2021/11/23 03:58:53;;;;;;;5.75;3.42;;;;;;;24.14;17.82;98934.66;5027991;28;20493;-79
2021/11/23 04:01:19;;;;;;;7.22;3.67;;;;;;;24.37;17.73;98932.84;5030008;28;20417;-80
2021/11/23 04:03:45;;;;;;;9.65;4.85;;;;;;;24.46;17.68;98932.38;5028992;28;20033;-80
2021/11/23 04:06:12;;;;;;;13.13;6.03;;;;;;;24.39;17.79;98924.00;5027226;28;20057;-79
2021/11/23 04:08:38;;;;;;;10.68;5.75;;;;;;;23.88;18.06;98927.63;5027307;28;20037;-80
2021/11/23 04:11:04;;;;;;;8.70;5.18;;;;;;;23.70;18.19;98932.59;5030364;28;20029;-80
2021/11/23 04:13:30;;;;;;;8.75;5.05;;;;;;;23.59;18.22;98927.06;5031110;28;20512;-80
2021/11/23 04:15:57;;;;;;;8.00;5.22;;;;;;;23.38;18.56;98932.00;5028955;28;20045;-79
2021/11/23 04:18:23;;;;;;;11.07;4.85;;;;;;;23.79;18.32;98936.53;5033319;28;20055;-80
2021/11/23 04:20:49;;;;;;;6.07;3.92;;;;;;;23.92;18.03;98942.47;5024868;28;20054;-79
2021/11/23 04:23:15;;;;;;;8.52;4.82;;;;;;;23.34;18.22;98934.78;5031994;28;20529;-79
2021/11/23 04:25:42;;;;;;;7.07;4.70;;;;;;;23.61;18.36;98933.06;5029560;28;20030;-79
2021/11/23 04:28:08;;;;;;;8.82;5.10;;;;;;;23.13;18.77;98935.69;5031523;28;20030;-80
2021/11/23 04:30:34;;;;;;;9.98;4.93;;;;;;;22.91;18.86;98941.78;5030250;28;20029;-79
2021/11/23 04:33:00;;;;;;;9.85;5.00;;;;;;;23.00;18.90;98937.34;5028411;28;20545;-80
2021/11/23 04:35:26;;;;;;;7.85;5.38;;;;;;;23.33;18.56;98939.59;5026820;28;20060;-79
2021/11/23 04:37:52;;;;;;;7.60;4.43;;;;;;;23.84;17.99;98936.09;5029978;28;20018;-80
2021/11/23 04:40:19;;;;;;;6.75;4.03;;;;;;;23.99;17.79;98942.41;5031666;28;20037;-80
2021/11/23 04:42:45;;;;;;;8.70;4.88;;;;;;;24.06;17.52;98933.97;5031333;28;20021;-80
2021/11/23 04:45:13;;;;;;;11.55;4.95;;;;;;;24.06;17.52;98928.34;5028426;28;20028;-79
2021/11/23 04:47:40;;;;;;;14.38;6.43;;;;;;;23.90;17.58;98930.81;5031852;28;20417;-80
2021/11/23 04:50:09;;;;;;;15.43;6.50;;;;;;;24.08;17.58;98927.94;5035010;28;20053;-80
2021/11/23 04:52:35;;;;;;;12.90;6.55;;;;;;;24.48;17.56;98927.94;5029988;28;20025;-79
2021/11/23 04:55:02;;;;;;;10.98;5.47;;;;;;;24.50;17.17;98921.91;5029896;28;20515;-80
2021/11/23 04:57:28;;;;;;;10.13;4.47;;;;;;;24.29;17.17;98928.53;5028668;28;20029;-79
2021/11/23 04:59:56;;;;;;;7.43;4.45;;;;;;;24.02;17.46;98925.53;5029158;28;20037;-80
2021/11/23 05:02:22;;;;;;;7.95;4.85;;;;;;;23.48;17.73;98920.72;5028549;28;20424;-79
2021/11/23 05:04:48;;;;;;;10.57;5.05;;;;;;;23.30;18.08;98926.41;5027564;28;20061;-79
2021/11/23 05:07:15;;;;;;;6.45;4.13;;;;;;;23.53;17.88;98920.28;5026211;28;20034;-80
2021/11/23 05:09:41;;;;;;;10.13;5.68;;;;;;;24.01;17.83;98925.94;5023465;28;20033;-79
2021/11/23 05:12:07;;;;;;;9.68;5.13;;;;;;;24.19;17.48;98926.63;5027089;28;20076;-80
2021/11/23 05:14:34;;;;;;;6.53;3.92;;;;;;;24.10;17.54;98925.50;5022456;28;20033;-80
2021/11/23 05:17:00;;;;;;;7.28;4.00;;;;;;;24.15;17.55;98931.47;5019160;28;20058;-79
2021/11/23 05:19:26;;;;;;;7.45;4.85;;;;;;;23.94;17.62;98923.97;5021940;28;20041;-79
2021/11/23 05:21:52;;;;;;;7.30;3.70;;;;;;;24.08;17.72;98936.34;5024289;28;20498;-79
2021/11/23 05:24:18;;;;;;;7.63;5.00;;;;;;;23.88;17.53;98924.84;5027348;28;20389;-79
2021/11/23 05:26:44;;;;;;;5.57;3.35;;;;;;;23.93;17.66;98927.19;5028493;28;20068;-79
2021/11/23 05:29:11;;;;;;;10.32;4.53;;;;;;;23.99;17.68;98920.72;5026318;28;20120;-80
2021/11/23 05:31:38;;;;;;;7.43;3.83;;;;;;;24.19;17.47;98923.81;5025117;28;20037;-79
2021/11/23 05:34:04;;;;;;;8.13;4.50;;;;;;;24.18;17.27;98921.44;5025849;28;20025;-79
2021/11/23 05:36:30;;;;;;;5.88;3.88;;;;;;;24.17;17.37;98919.81;5026637;28;20087;-79
2021/11/23 05:38:56;;;;;;;5.57;3.13;;;;;;;24.20;17.31;98919.00;5024311;28;20053;-78
2021/11/23 05:41:22;;;;;;;6.20;3.58;;;;;;;24.39;17.30;98916.41;5022481;28;20436;-79
2021/11/23 05:43:49;;;;;;;7.53;4.40;;;;;;;24.20;17.30;98922.59;5026526;28;20567;-78
2021/11/23 05:46:15;;;;;;;8.23;3.35;;;;;;;24.02;17.68;98928.34;5028247;28;20036;-79
2021/11/23 05:48:41;;;;;;;6.03;3.33;;;;;;;24.27;17.42;98927.34;5030444;28;20120;-78
2021/11/23 05:51:08;;;;;;;5.72;3.75;;;;;;;24.44;17.12;98918.75;5030633;28;20033;-78
2021/11/23 05:53:36;;;;;;;5.97;3.67;;;;;;;24.26;17.39;98922.94;5032565;28;20481;-78
2021/11/23 05:56:03;;;;;;;9.70;4.20;;;;;;;24.15;17.23;98923.06;5034126;28;20025;-78
2021/11/23 05:58:29;;;;;;;5.18;2.90;;;;;;;24.24;17.38;98931.78;5034747;28;20060;-79
2021/11/23 06:00:56;;;;;;;6.25;3.20;;;;;;;24.53;17.18;98932.28;5032437;28;20136;-79
2021/11/23 06:03:22;;;;;;;4.05;2.42;;;;;;;24.66;17.26;98931.38;5034755;28;20029;-79
2021/11/23 06:05:48;;;;;;;5.05;2.85;;;;;;;24.79;16.94;98933.66;5033665;28;20044;-79
2021/11/23 06:08:15;;;;;;;4.88;2.92;;;;;;;24.76;16.78;98918.47;5033244;28;20076;-81
2021/11/23 06:10:42;;;;;;;5.28;3.35;;;;;;;24.71;16.73;98928.06;5033605;28;20029;-79
2021/11/23 06:13:10;;;;;;;5.07;3.28;;;;;;;24.27;16.71;98941.38;5033496;28;20032;-79
2021/11/23 06:15:38;;;;;;;5.13;2.75;;;;;;;24.32;16.93;98940.94;5034087;28;20481;-81
2021/11/23 06:18:06;;;;;;;5.05;2.80;;;;;;;23.99;17.43;98950.81;5030440;28;20106;-81
2021/11/23 06:20:33;;;;;;;6.15;3.13;;;;;;;23.79;17.56;98952.56;5031121;28;20448;-82
2021/11/23 06:23:01;;;;;;;4.47;2.58;;;;;;;24.03;17.22;98962.81;5020760;28;20057;-81
2021/11/23 06:25:28;;;;;;;7.75;3.38;;;;;;;23.96;17.09;98971.28;5028108;28;20029;-80
2021/11/23 06:27:54;;;;;;;4.35;2.75;;;;;;;24.02;17.07;98973.22;5035093;28;20114;-80
2021/11/23 06:30:22;;;;;;;4.50;3.00;;;;;;;23.83;17.45;98984.97;5023666;28;20037;-80
2021/11/23 06:32:49;;;;;;;5.20;2.70;;;;;;;23.80;17.44;98983.00;5034854;28;20417;-80
2021/11/23 06:35:15;;;;;;;5.65;3.17;;;;;;;23.88;17.11;98987.34;5035632;28;20025;-80
2021/11/23 06:37:42;;;;;;;6.30;3.22;;;;;;;23.64;17.66;98990.31;5034065;28;20359;-80
2021/11/23 06:40:10;;;;;;;7.68;4.18;;;;;;;23.44;17.50;98986.41;5034980;28;20026;-80
2021/11/23 06:42:36;;;;;;;7.57;4.38;;;;;;;22.74;18.45;98995.81;5034619;28;20029;-80
2021/11/23 06:45:05;;;;;;;6.93;4.15;;;;;;;22.75;18.36;98995.44;5033777;28;20038;-80
2021/11/23 06:47:31;;;;;;;7.40;3.88;;;;;;;22.91;18.35;98997.78;5032511;28;20463;-80
2021/11/23 06:49:57;;;;;;;8.88;5.43;;;;;;;22.50;18.56;99006.63;5035010;28;20425;-80
2021/11/23 06:52:24;;;;;;;8.00;4.68;;;;;;;22.68;18.63;99010.22;5030134;28;20116;-80
2021/11/23 06:54:51;;;;;;;8.27;4.68;;;;;;;22.34;18.77;99009.03;5028561;28;20037;-80
2021/11/23 06:57:17;;;;;;;7.28;4.68;;;;;;;22.40;19.02;99015.84;5034847;28;20029;-80
2021/11/23 06:59:45;;;;;;;7.55;4.72;;;;;;;22.13;19.27;99011.81;5034533;28;20028;-80
2021/11/23 07:02:11;;;;;;;10.43;5.35;;;;;;;22.61;18.78;99018.63;5033126;28;20440;-80
2021/11/23 07:04:38;;;;;;;9.25;4.75;;;;;;;22.58;18.76;99025.00;5034608;28;20052;-80
2021/11/23 07:07:06;;;;;;;5.40;4.05;;;;;;;22.26;19.25;99021.44;5028819;28;20500;-80
2021/11/23 07:09:32;;;;;;;5.57;3.75;;;;;;;21.78;19.49;99018.13;5034565;28;20396;-80
2021/11/23 07:11:58;;;;;;;8.32;3.90;;;;;;;22.62;18.84;99014.63;5029334;28;20104;-79
2021/11/23 07:14:24;;;;;;;6.38;4.10;;;;;;;22.72;18.57;99017.81;5033579;28;20041;-80
2021/11/23 07:16:51;;;;;;;10.27;5.53;;;;;;;22.48;19.04;99020.22;5033313;28;20037;-80
2021/11/23 07:19:18;;;;;;;10.52;4.78;;;;;;;22.67;19.01;99021.81;5034699;28;20116;-80
2021/11/23 07:21:44;;;;;;;7.95;5.00;;;;;;;22.16;19.87;99016.63;5034369;28;20045;-80
2021/11/23 07:24:10;;;;;;;11.40;5.25;;;;;;;22.21;19.95;99021.03;5033625;28;20055;-80
2021/11/23 07:26:38;;;;;;;6.75;4.57;;;;;;;22.90;19.60;99021.38;5033258;28;20041;-80
2021/11/23 07:29:06;;;;;;;12.52;6.25;;;;;;;23.51;18.61;99006.78;5028874;28;20036;-80
2021/11/23 07:31:32;;;;;;;8.38;4.88;;;;;;;23.63;18.38;99003.53;5032865;28;20489;-80
2021/11/23 07:33:58;;;;;;;11.93;5.95;;;;;;;23.83;18.12;99001.00;5029351;28;20048;-80
2021/11/23 07:36:25;;;;;;;9.43;5.35;;;;;;;22.88;18.61;99002.19;5025750;28;20025;-80
2021/11/23 07:38:55;;;;;;;9.38;5.95;;;;;;;23.31;18.41;99000.06;5033872;28;20060;-80
2021/11/23 07:41:21;;;;;;;8.57;5.63;;;;;;;22.87;18.95;98999.81;5034370;28;20481;-80
2021/11/23 07:43:49;;;;;;;9.32;5.20;;;;;;;22.24;19.34;99001.44;5023689;28;20390;-80
2021/11/23 07:46:16;;;;;;;10.15;4.85;;;;;;;22.22;19.40;99001.03;5019080;28;20363;-80
2021/11/23 07:48:42;;;;;;;9.68;5.28;;;;;;;22.80;18.93;99011.03;5024492;28;20116;-80
2021/11/23 07:51:08;;;;;;;8.30;4.95;;;;;;;22.18;19.00;99010.63;5014229;28;20044;-80
2021/11/23 07:53:34;;;;;;;11.05;3.90;;;;;;;22.33;19.41;99015.03;5028422;28;20131;-80
2021/11/23 07:56:01;;;;;;;10.43;5.07;;;;;;;22.06;19.17;99008.22;5033876;28;20560;-80
2021/11/23 07:58:27;;;;;;;7.55;4.20;;;;;;;22.72;18.61;99006.63;5033919;28;20155;-80
2021/11/23 08:00:54;;;;;;;10.18;5.70;;;;;;;23.19;18.22;99009.72;5033917;28;20096;-80
2021/11/23 08:03:20;;;;;;;6.32;3.35;;;;;;;22.83;18.39;99019.41;5032817;28;20033;-80
2021/11/23 08:05:46;;;;;;;6.25;3.08;;;;;;;22.50;18.51;99022.59;5032818;28;20037;-80
2021/11/23 08:08:13;;;;;;;7.20;4.13;;;;;;;21.71;18.96;99029.28;5033252;28;20033;-80
2021/11/23 08:10:40;;;;;;;7.93;5.07;;;;;;;21.03;19.91;99026.56;5033228;28;20041;-80
2021/11/23 08:13:07;;;;;;;6.85;3.78;;;;;;;20.71;20.48;99025.59;5033457;28;20083;-80
2021/11/23 08:15:36;;;;;;;8.40;3.88;;;;;;;20.68;20.45;99022.38;5026740;28;20111;-80
2021/11/23 08:18:04;;;;;;;6.75;3.60;;;;;;;19.55;21.73;99017.75;5013790;28;20452;-80
2021/11/23 08:20:30;;;;;;;5.88;3.70;;;;;;;20.17;21.09;99029.91;5028625;28;20033;-80
2021/11/23 08:22:56;;;;;;;8.77;3.72;;;;;;;19.93;21.21;99025.72;5031669;28;20048;-80
2021/11/23 08:25:22;;;;;;;5.38;3.17;;;;;;;21.08;20.23;99026.25;5032283;28;20034;-80
2021/11/23 08:27:49;;;;;;;7.32;4.63;;;;;;;20.58;20.69;99023.09;5033363;28;20040;-80
2021/11/23 08:30:16;;;;;;;6.60;4.00;;;;;;;19.54;21.84;99021.72;5017242;28;20026;-80
2021/11/23 08:32:43;;;;;;;14.18;6.13;;;;;;;20.30;20.92;99024.91;5023978;28;20603;-80
2021/11/23 08:35:10;;;;;;;6.63;4.55;;;;;;;20.27;21.27;99034.03;5033198;28;20029;-80
2021/11/23 08:37:36;;;;;;;9.05;4.82;;;;;;;20.82;20.56;99032.06;5032546;28;20030;-80
2021/11/23 08:40:04;;;;;;;11.98;5.63;;;;;;;20.13;21.32;99040.25;5033305;28;20492;-80
2021/11/23 08:42:31;;;;;;;8.98;4.43;;;;;;;21.49;20.21;99044.41;5032878;28;20099;-80
2021/11/23 08:44:57;;;;;;;10.40;5.55;;;;;;;21.18;20.51;99043.06;5033494;28;20025;-80
2021/11/23 08:47:24;;;;;;;8.98;5.20;;;;;;;21.75;19.94;99049.66;5015582;28;20041;-80
2021/11/23 08:49:51;;;;;;;13.70;6.03;;;;;;;21.09;20.48;99045.41;5023362;28;20061;-81
2021/11/23 08:52:17;;;;;;;9.07;4.82;;;;;;;21.81;20.24;99048.09;5033060;28;20030;-80
2021/11/23 08:54:44;;;;;;;6.78;4.15;;;;;;;22.29;19.50;99045.78;5032642;28;20115;-80
2021/11/23 08:57:11;;;;;;;9.02;4.97;;;;;;;23.10;18.58;99053.38;5032014;28;20144;-80
2021/11/23 08:59:41;;;;;;;11.88;4.93;;;;;;;22.38;19.39;99046.19;5033281;28;20021;-80
2021/11/23 09:02:10;;;;;;;8.70;4.35;;;;;;;22.06;19.84;99053.75;5032708;28;20394;-80
2021/11/23 09:04:37;;;;;;;8.05;4.32;;;;;;;23.11;19.37;99043.72;5020389;28;20120;-80
2021/11/23 09:07:07;;;;;;;9.07;4.53;;;;;;;23.88;18.63;99046.25;5024903;28;20030;-80
2021/11/23 09:09:35;;;;;;;7.13;3.88;;;;;;;23.48;18.04;99046.84;5032578;28;20045;-80
2021/11/23 09:12:03;;;;;;;6.90;4.18;;;;;;;21.65;20.04;99044.84;5032687;28;20056;-80
2021/11/23 09:14:35;;;;;;;5.30;2.63;;;;;;;22.98;19.07;99045.38;5032618;28;20044;-80
2021/11/23 09:17:06;;;;;;;6.97;3.45;;;;;;;22.56;19.35;99044.22;5032952;28;20036;-80
2021/11/23 09:19:33;;;;;;;5.32;3.80;;;;;;;23.52;18.67;99030.81;5029905;28;20032;-80
2021/11/23 09:21:59;;;;;;;6.03;3.35;;;;;;;23.36;18.42;99033.31;5012767;28;20104;-80
2021/11/23 09:24:25;;;;;;;5.43;2.88;;;;;;;23.02;18.97;99037.75;5021055;28;20112;-80
2021/11/23 09:26:52;;;;;;;4.63;2.85;;;;;;;23.02;18.77;99043.38;5013402;28;20486;-80
2021/11/23 09:29:22;;;;;;;5.30;2.60;;;;;;;23.53;18.25;99026.81;5033566;28;20068;-80
2021/11/23 09:31:49;;;;;;;7.20;3.53;;;;;;;23.21;18.30;99032.50;5036209;28;20116;-80
2021/11/23 09:34:16;;;;;;;5.90;3.33;;;;;;;22.34;18.03;99034.22;5036449;28;20029;-80
2021/11/23 09:36:44;;;;;;;4.40;2.47;;;;;;;19.91;20.34;99038.44;5017988;28;20030;-80
2021/11/23 09:39:11;;;;;;;5.20;2.35;;;;;;;18.69;22.14;99044.03;5016624;28;20045;-80
2021/11/23 09:41:38;;;;;;;3.90;1.98;;;;;;;18.53;21.94;99042.19;5034653;28;20033;-80
2021/11/23 09:44:05;;;;;;;3.83;2.20;;;;;;;19.79;20.58;99022.78;5036604;28;20042;-80
2021/11/23 09:46:34;;;;;;;8.85;2.20;;;;;;;20.51;20.20;99022.28;5035945;28;20040;-80
2021/11/23 09:49:00;;;;;;;4.25;2.22;;;;;;;21.12;19.98;99016.69;5035583;28;20045;-80
2021/11/23 09:51:28;;;;;;;5.63;2.83;;;;;;;21.93;19.12;99019.81;5035242;28;20120;-80
2021/11/23 09:53:57;;;;;;;5.85;2.90;;;;;;;22.69;18.38;99019.41;5033141;28;20041;-80
2021/11/23 09:56:24;;;;;;;6.30;2.38;;;;;;;23.20;17.87;99014.09;5036086;28;20112;-80
2021/11/23 09:58:57;;;;;;;4.93;2.25;;;;;;;23.03;17.24;98995.34;5035986;28;20045;-80
2021/11/23 10:01:27;;;;;;;2.85;1.65;;;;;;;23.42;17.45;98991.63;5036044;28;20534;-80
2021/11/23 10:03:55;;;;;;;4.20;2.08;;;;;;;23.42;16.97;98988.81;5017796;28;20050;-80
2021/11/23 10:06:26;;;;;;;7.20;2.33;;;;;;;23.02;17.02;98982.53;5023472;28;20040;-80
2021/11/23 10:08:55;;;;;;;5.40;1.63;;;;;;;23.03;17.37;98986.16;5017554;28;20033;-80
2021/11/23 10:11:26;;;;;;;3.03;1.70;;;;;;;23.46;16.83;98973.56;5016120;28;20041;-80
2021/11/23 10:13:56;;;;;;;5.03;1.30;;;;;;;23.80;16.74;98983.00;5019375;28;20373;-80
2021/11/23 10:16:24;;;;;;;5.57;1.58;;;;;;;23.42;16.83;98972.81;5029784;28;20026;-80
2021/11/23 10:18:51;;;;;;;4.03;1.70;;;;;;;23.75;16.01;98977.81;5021175;28;20025;-80
2021/11/23 10:21:24;;;;;;;4.47;2.08;;;;;;;23.52;16.27;98974.75;5035573;28;20140;-80
2021/11/23 10:23:52;;;;;;;3.88;1.95;;;;;;;22.41;17.23;98972.66;5035349;28;20038;-80
2021/11/23 10:26:36;;;;;;;3.08;1.88;;;;;;;22.70;17.19;98967.84;5035146;28;20128;-80
2021/11/23 10:29:06;;;;;;;4.10;1.90;;;;;;;21.39;18.10;98982.88;5022213;28;20440;-80
2021/11/23 10:31:44;;;;;;;6.45;2.67;;;;;;;22.00;17.59;98985.44;5034123;28;20037;-80
2021/11/23 10:34:16;;;;;;;4.40;1.75;;;;;;;22.55;17.17;98989.44;5035156;28;20140;-80
2021/11/23 10:36:46;;;;;;;3.97;1.88;;;;;;;23.58;16.36;98975.91;5035244;28;20100;-80
2021/11/23 10:39:23;;;;;;;4.72;2.10;;;;;;;22.49;16.60;98981.84;5034750;28;20104;-80
2021/11/23 10:41:55;;;;;;;3.53;1.55;;;;;;;22.52;17.26;98970.63;5035358;28;20026;-80
2021/11/23 10:44:23;;;;;;;3.40;1.45;;;;;;;22.87;16.36;98985.81;5033191;28;20110;-80
2021/11/23 10:46:54;;;;;;;3.00;1.55;;;;;;;23.42;16.03;98977.59;5032945;28;20025;-80
2021/11/23 10:49:29;;;;;;;;;;;;;;;22.74;16.25;98973.41;5029079;28;20497;-80
2021/11/23 10:51:57;;;;;;;2.55;1.48;;;;;;;23.03;16.09;98972.94;5023529;28;19968;-80
2021/11/23 10:54:23;;;;;;;4.05;1.50;;;;;;;22.39;16.86;98982.63;5033312;28;20019;-80
2021/11/23 10:56:56;;;;;;;1.77;1.23;;;;;;;22.90;16.62;98980.19;5034989;28;20482;-80
2021/11/23 10:59:23;;;;;;;1.70;1.13;;;;;;;20.89;17.80;98982.63;5035325;28;20030;-80
2021/11/23 11:01:49;;;;;;;2.15;1.02;;;;;;;20.46;18.23;98964.84;5029949;28;20041;-80
2021/11/23 11:04:16;;;;;;;1.80;1.15;;;;;;;19.72;18.93;98972.56;5015017;28;20022;-80
2021/11/23 11:06:42;;;;;;;2.95;1.60;;;;;;;19.61;19.36;98971.66;5032658;28;20485;-80
2021/11/23 11:09:09;;;;;;;2.38;1.40;;;;;;;20.53;18.23;98978.06;5031999;28;20124;-80
2021/11/23 11:11:36;;;;;;;6.38;2.80;;;;;;;21.34;17.67;98967.31;5034672;28;20417;-80
2021/11/23 11:14:05;;;;;;;2.90;1.60;;;;;;;21.17;18.01;98960.47;5034817;28;20167;-80
2021/11/23 11:16:36;;;;;;;2.80;1.38;;;;;;;20.66;18.34;98957.81;5032824;28;20116;-81
2021/11/23 11:19:09;;;;;;;2.60;1.17;;;;;;;19.96;19.29;98965.63;5033715;28;20128;-80
2021/11/23 11:21:41;;;;;;;3.08;1.25;;;;;;;21.89;17.10;98965.84;5034183;28;20038;-80
2021/11/23 11:24:33;;;;;;;2.53;1.33;;;;;;;21.99;16.86;98972.66;5034714;28;20036;-81
2021/11/23 11:27:14;;;;;;;3.00;1.10;;;;;;;21.91;17.07;98966.25;5032273;28;20414;-80
2021/11/23 11:29:41;;;;;;;;;;;;;;;22.25;16.61;98957.47;5017469;28;20042;-80
2021/11/23 11:32:27;;;;;;;2.33;1.17;;;;;;;21.03;17.17;98949.22;5023421;28;20304;-80